createdAt,value
2019-06-23T00:01:57.652Z,2.90
2019-06-23T00:04:26.230Z,3.12
2019-06-23T00:06:54.776Z,3.37
2019-06-23T00:09:23.303Z,2.87
2019-06-23T00:11:51.865Z,3.10
2019-06-23T00:14:20.395Z,3.12
2019-06-23T00:16:48.941Z,3.30
2019-06-23T00:19:17.511Z,3.52
2019-06-23T00:21:46.058Z,3.27
2019-06-23T00:24:14.602Z,3.15
2019-06-23T00:26:43.096Z,3.30
2019-06-23T00:29:12.102Z,3.33
2019-06-23T00:31:53.979Z,3.20
2019-06-23T00:34:22.602Z,3.42
2019-06-23T00:36:51.475Z,3.50
2019-06-23T00:39:20.114Z,3.40
2019-06-23T00:41:48.714Z,3.37
2019-06-23T00:44:17.530Z,3.22
2019-06-23T00:46:46.418Z,3.10
2019-06-23T00:49:14.995Z,3.05
2019-06-23T00:51:43.594Z,3.33
2019-06-23T00:54:12.149Z,3.52
2019-06-23T00:56:40.766Z,3.70
2019-06-23T00:59:09.609Z,3.40
2019-06-23T01:01:42.780Z,3.40
2019-06-23T01:04:11.419Z,3.47
2019-06-23T01:06:40.033Z,3.47
2019-06-23T01:09:08.733Z,3.50
2019-06-23T01:11:44.910Z,3.47
2019-06-23T01:14:13.473Z,3.75
2019-06-23T01:16:42.010Z,3.25
2019-06-23T01:19:10.474Z,3.20
2019-06-23T01:21:38.973Z,3.22
2019-06-23T01:24:07.859Z,3.62
2019-06-23T01:26:36.403Z,3.87
2019-06-23T01:29:05.124Z,4.25
2019-06-23T01:31:33.919Z,3.42
2019-06-23T01:34:02.480Z,3.20
2019-06-23T01:36:31.266Z,3.30
2019-06-23T01:38:59.799Z,3.42
2019-06-23T01:41:28.361Z,3.42
2019-06-23T01:43:56.895Z,3.58
2019-06-23T01:46:25.455Z,3.70
2019-06-23T01:48:53.994Z,3.65
2019-06-23T01:51:22.518Z,3.17
2019-06-23T01:53:51.027Z,3.90
2019-06-23T01:56:19.566Z,3.65
2019-06-23T01:58:48.124Z,3.90
2019-06-23T02:01:16.734Z,3.85
2019-06-23T02:03:45.348Z,3.83
2019-06-23T02:06:13.887Z,3.95
2019-06-23T02:08:42.497Z,3.52
2019-06-23T02:11:11.122Z,3.60
2019-06-23T02:13:39.926Z,3.65
2019-06-23T02:16:08.541Z,3.72
2019-06-23T02:18:37.095Z,3.50
2019-06-23T02:21:06.998Z,3.80
2019-06-23T02:23:35.487Z,3.40
2019-06-23T02:26:04.030Z,3.12
2019-06-23T02:28:32.581Z,3.70
2019-06-23T02:31:01.150Z,3.65
2019-06-23T02:33:29.788Z,3.62
2019-06-23T02:35:58.314Z,3.58
2019-06-23T02:38:26.849Z,3.45
2019-06-23T02:40:55.347Z,3.58
2019-06-23T02:43:23.956Z,3.60
2019-06-23T02:48:45.785Z,3.60
2019-06-23T02:51:15.993Z,3.52
2019-06-23T02:53:49.203Z,3.60
2019-06-23T02:56:25.454Z,3.70
2019-06-23T02:59:01.381Z,3.50
2019-06-23T03:01:30.011Z,3.77
2019-06-23T03:03:58.894Z,3.77
2019-06-23T03:06:27.501Z,3.52
2019-06-23T03:08:56.263Z,3.80
2019-06-23T03:11:24.808Z,3.40
2019-06-23T03:13:53.366Z,3.98
2019-06-23T03:16:22.122Z,3.67
2019-06-23T03:18:51.002Z,3.75
2019-06-23T03:21:19.522Z,3.80
2019-06-23T03:23:48.055Z,3.52
2019-06-23T03:26:47.866Z,4.00
2019-06-23T03:29:16.775Z,4.17
2019-06-23T03:31:45.874Z,3.37
2019-06-23T03:34:14.485Z,3.87
2019-06-23T03:36:43.166Z,3.42
2019-06-23T03:39:12.305Z,3.80
2019-06-23T03:41:40.920Z,4.20
2019-06-23T03:44:09.553Z,4.25
2019-06-23T03:46:38.158Z,4.10
2019-06-23T03:49:06.626Z,4.33
2019-06-23T03:51:35.653Z,3.62
2019-06-23T03:54:04.549Z,4.10
2019-06-23T03:56:33.116Z,3.67
2019-06-23T03:59:01.653Z,3.77
2019-06-23T04:01:30.209Z,3.85
2019-06-23T04:03:58.771Z,4.10
2019-06-23T04:06:27.310Z,3.83
2019-06-23T04:08:55.844Z,3.60
2019-06-23T04:11:24.415Z,3.58
2019-06-23T04:13:53.090Z,3.55
2019-06-23T04:16:21.652Z,3.90
2019-06-23T04:18:50.117Z,3.95
2019-06-23T04:21:18.794Z,3.42
2019-06-23T04:23:47.303Z,3.62
2019-06-23T04:26:15.920Z,3.50
2019-06-23T04:28:44.507Z,3.10
2019-06-23T04:31:13.058Z,3.65
2019-06-23T04:33:41.603Z,3.22
2019-06-23T04:36:10.234Z,3.10
2019-06-23T04:38:38.713Z,3.17
2019-06-23T04:41:07.365Z,3.70
2019-06-23T04:43:35.898Z,3.52
2019-06-23T04:46:04.514Z,2.90
2019-06-23T04:48:33.074Z,3.20
2019-06-23T04:51:01.607Z,3.10
2019-06-23T04:53:30.151Z,3.20
2019-06-23T04:55:58.639Z,3.10
2019-06-23T04:58:27.174Z,3.00
2019-06-23T05:00:55.740Z,3.20
2019-06-23T05:03:25.113Z,2.85
2019-06-23T05:05:53.682Z,2.98
2019-06-23T05:08:22.216Z,3.30
2019-06-23T05:10:51.021Z,2.95
2019-06-23T05:13:19.512Z,2.87
2019-06-23T05:15:48.047Z,3.50
2019-06-23T05:18:16.684Z,3.50
2019-06-23T05:20:45.287Z,3.20
2019-06-23T05:23:13.829Z,3.40
2019-06-23T05:25:42.390Z,3.33
2019-06-23T05:28:10.930Z,2.90
2019-06-23T05:30:39.791Z,2.60
2019-06-23T05:33:08.355Z,2.70
2019-06-23T05:35:36.817Z,2.80
2019-06-23T05:38:05.374Z,3.17
2019-06-23T05:40:33.911Z,2.62
2019-06-23T05:43:02.458Z,3.05
2019-06-23T05:45:31.155Z,3.20
2019-06-23T05:47:59.634Z,2.60
2019-06-23T05:50:28.183Z,2.45
2019-06-23T05:52:56.728Z,2.50
2019-06-23T05:55:25.264Z,3.02
2019-06-23T05:57:53.830Z,3.55
2019-06-23T06:00:22.366Z,2.90
2019-06-23T06:02:50.927Z,6.00
2019-06-23T06:05:19.398Z,5.28
2019-06-23T06:07:47.927Z,5.67
2019-06-23T06:10:16.632Z,5.30
2019-06-23T06:12:45.172Z,3.95
2019-06-23T06:15:13.723Z,5.42
2019-06-23T06:17:42.364Z,5.08
2019-06-23T06:20:12.062Z,4.78
2019-06-23T06:22:40.627Z,3.58
2019-06-23T06:25:10.131Z,3.95
2019-06-23T06:27:38.671Z,2.92
2019-06-23T06:30:09.575Z,3.30
2019-06-23T06:32:38.185Z,3.45
2019-06-23T06:35:07.783Z,2.55
2019-06-23T06:37:36.400Z,6.50
2019-06-23T06:40:07.041Z,4.55
2019-06-23T06:42:35.982Z,3.55
2019-06-23T06:45:05.190Z,3.65
2019-06-23T06:47:35.208Z,2.67
2019-06-23T06:50:06.111Z,2.60
2019-06-23T06:52:34.586Z,2.77
2019-06-23T06:55:03.630Z,2.62
2019-06-23T06:57:32.170Z,2.10
2019-06-23T07:00:00.750Z,2.15
2019-06-23T07:02:29.233Z,2.52
2019-06-23T07:04:57.747Z,2.60
2019-06-23T07:07:27.544Z,2.40
2019-06-23T07:09:56.430Z,3.30
2019-06-23T07:12:44.340Z,2.95
2019-06-23T07:15:13.115Z,3.22
2019-06-23T07:17:41.680Z,3.10
2019-06-23T07:20:10.290Z,2.70
2019-06-23T07:22:38.815Z,2.67
2019-06-23T07:25:08.088Z,3.00
2019-06-23T07:27:36.671Z,1.92
2019-06-23T07:30:29.518Z,1.95
2019-06-23T07:32:58.317Z,2.10
2019-06-23T07:35:27.298Z,1.87
2019-06-23T07:37:55.866Z,2.10
2019-06-23T07:40:24.419Z,2.17
2019-06-23T07:42:53.042Z,1.80
2019-06-23T07:45:21.668Z,1.80
2019-06-23T07:47:50.197Z,1.60
2019-06-23T07:50:18.763Z,1.80
2019-06-23T07:52:47.590Z,2.00
2019-06-23T07:55:16.220Z,1.72
2019-06-23T07:57:44.784Z,1.60
2019-06-23T08:00:13.391Z,1.70
2019-06-23T08:02:41.948Z,1.45
2019-06-23T08:05:10.907Z,1.50
2019-06-23T08:07:39.475Z,1.72
2019-06-23T08:10:08.746Z,1.50
2019-06-23T08:12:37.282Z,1.40
2019-06-23T08:15:05.911Z,1.95
2019-06-23T08:17:34.520Z,1.80
2019-06-23T08:20:04.530Z,1.42
2019-06-23T08:22:33.082Z,1.40
2019-06-23T08:25:01.727Z,1.32
2019-06-23T08:27:30.553Z,1.80
2019-06-23T08:29:59.331Z,1.47
2019-06-23T08:32:27.881Z,1.62
2019-06-23T08:34:56.367Z,1.20
2019-06-23T08:37:44.244Z,1.07
2019-06-23T08:40:12.949Z,1.15
2019-06-23T08:42:41.487Z,1.70
2019-06-23T08:45:10.585Z,1.47
2019-06-23T08:47:39.158Z,1.45
2019-06-23T08:50:08.156Z,1.30
2019-06-23T08:52:37.130Z,1.27
2019-06-23T08:55:07.040Z,1.30
2019-06-23T08:57:35.571Z,1.40
2019-06-23T09:00:06.569Z,1.40
2019-06-23T09:02:35.107Z,1.30
2019-06-23T09:05:07.211Z,1.50
2019-06-23T09:07:35.813Z,1.27
2019-06-23T09:10:06.494Z,1.50
2019-06-23T09:12:35.114Z,1.32
2019-06-23T09:15:05.098Z,1.20
2019-06-23T09:17:33.750Z,1.47
2019-06-23T09:20:02.371Z,1.25
2019-06-23T09:22:30.973Z,1.20
2019-06-23T09:24:59.477Z,1.40
2019-06-23T09:27:28.018Z,1.35
2019-06-23T09:29:56.593Z,1.32
2019-06-23T09:32:25.195Z,1.30
2019-06-23T09:34:53.814Z,1.20
2019-06-23T09:37:22.362Z,1.10
2019-06-23T09:39:50.930Z,1.20
2019-06-23T09:42:19.742Z,1.10
2019-06-23T09:44:48.304Z,1.40
2019-06-23T09:47:17.217Z,1.05
2019-06-23T09:49:45.779Z,1.10
2019-06-23T09:52:14.396Z,1.40
2019-06-23T09:54:42.932Z,1.50
2019-06-23T09:57:11.501Z,1.40
2019-06-23T09:59:40.027Z,1.30
2019-06-23T10:02:08.819Z,1.50
2019-06-23T10:04:37.377Z,1.37
2019-06-23T10:07:07.557Z,1.35
2019-06-23T10:09:36.203Z,1.12
2019-06-23T10:12:05.191Z,1.30
2019-06-23T10:14:33.754Z,1.52
2019-06-23T10:17:02.332Z,1.10
2019-06-23T10:19:31.144Z,1.12
2019-06-23T10:21:59.708Z,1.07
2019-06-23T10:24:28.386Z,1.12
2019-06-23T10:26:57.088Z,0.90
2019-06-23T10:29:25.849Z,1.10
2019-06-23T10:31:54.519Z,1.32
2019-06-23T10:34:25.766Z,1.50
2019-06-23T10:36:54.304Z,1.37
2019-06-23T10:39:24.453Z,1.22
2019-06-23T10:41:53.011Z,1.50
2019-06-23T10:44:21.543Z,1.37
2019-06-23T10:46:50.111Z,1.22
2019-06-23T10:49:18.649Z,1.62
2019-06-23T10:51:47.180Z,1.20
2019-06-23T10:54:15.743Z,1.05
2019-06-23T10:56:44.601Z,1.10
2019-06-23T10:59:13.491Z,1.22
2019-06-23T11:01:42.101Z,1.15
2019-06-23T11:04:10.671Z,1.10
2019-06-23T11:06:39.182Z,1.32
2019-06-23T11:09:08.728Z,0.90
2019-06-23T11:11:37.314Z,1.12
2019-06-23T11:14:05.912Z,1.27
2019-06-23T11:16:34.494Z,1.20
2019-06-23T11:19:03.011Z,1.12
2019-06-23T11:21:31.615Z,1.02
2019-06-23T11:24:00.171Z,1.05
2019-06-23T11:26:28.739Z,1.30
2019-06-23T11:28:57.521Z,1.37
2019-06-23T11:31:26.129Z,1.10
2019-06-23T11:33:54.626Z,1.50
2019-06-23T11:36:23.199Z,1.10
2019-06-23T11:38:51.739Z,1.00
2019-06-23T11:41:20.346Z,1.17
2019-06-23T11:43:48.842Z,1.10
2019-06-23T11:46:17.423Z,1.05
2019-06-23T11:48:45.930Z,0.90
2019-06-23T11:51:14.492Z,1.10
2019-06-23T11:53:46.047Z,1.07
2019-06-23T11:56:14.636Z,1.35
2019-06-23T11:58:43.185Z,0.98
2019-06-23T12:01:11.791Z,1.12
2019-06-23T12:03:40.363Z,1.10
2019-06-23T12:06:08.907Z,1.15
2019-06-23T12:08:37.455Z,1.05
2019-06-23T12:11:06.107Z,0.95
2019-06-23T12:13:34.740Z,1.30
2019-06-23T12:16:03.360Z,1.40
2019-06-23T12:18:31.919Z,1.20
2019-06-23T12:21:00.515Z,1.20
2019-06-23T12:23:29.088Z,1.12
2019-06-23T12:25:57.979Z,0.90
2019-06-23T12:28:26.519Z,1.10
2019-06-23T12:30:55.080Z,1.17
2019-06-23T12:33:23.631Z,1.02
2019-06-23T12:35:52.188Z,1.02
2019-06-23T12:38:20.734Z,0.85
2019-06-23T12:40:49.437Z,1.25
2019-06-23T12:43:17.975Z,0.90
2019-06-23T12:45:46.528Z,0.95
2019-06-23T12:48:15.080Z,0.80
2019-06-23T12:50:43.763Z,0.80
2019-06-23T12:53:12.259Z,1.30
2019-06-23T12:55:40.795Z,1.10
2019-06-23T12:58:09.350Z,1.27
2019-06-23T13:00:37.997Z,1.20
2019-06-23T13:03:06.926Z,0.88
2019-06-23T13:05:35.462Z,0.80
2019-06-23T13:08:04.107Z,1.10
2019-06-23T13:10:40.340Z,1.37
2019-06-23T13:13:03.250Z,1.17
2019-06-23T13:15:31.819Z,0.98
2019-06-23T13:18:00.394Z,1.25
2019-06-23T13:20:28.902Z,1.40
2019-06-23T13:22:57.402Z,1.10
2019-06-23T13:25:25.940Z,1.15
2019-06-23T13:27:54.481Z,1.10
2019-06-23T13:30:23.103Z,1.27
2019-06-23T13:32:51.645Z,1.10
2019-06-23T13:35:20.189Z,1.35
2019-06-23T13:37:48.755Z,1.20
2019-06-23T13:40:17.432Z,1.95
2019-06-23T13:42:45.984Z,1.37
2019-06-23T13:45:15.091Z,1.30
2019-06-23T13:47:43.677Z,1.40
2019-06-23T13:50:12.267Z,1.10
2019-06-23T13:52:40.805Z,1.32
2019-06-23T13:55:09.801Z,1.50
2019-06-23T13:57:38.335Z,1.40
2019-06-23T14:00:09.644Z,1.15
2019-06-23T14:02:38.183Z,1.10
2019-06-23T14:05:08.683Z,0.90
2019-06-23T14:07:37.220Z,1.20
2019-06-23T14:10:07.699Z,1.30
2019-06-23T14:12:36.411Z,1.12
2019-06-23T14:15:07.075Z,1.10
2019-06-23T14:17:35.767Z,1.12
2019-06-23T14:20:06.287Z,0.95
2019-06-23T14:22:34.838Z,1.20
2019-06-23T14:25:04.456Z,1.60
2019-06-23T14:27:33.008Z,1.55
2019-06-23T14:30:01.581Z,1.52
2019-06-23T14:32:30.330Z,1.20
2019-06-23T14:34:58.839Z,1.55
2019-06-23T14:37:27.372Z,1.42
2019-06-23T14:39:55.945Z,1.55
2019-06-23T14:42:24.489Z,1.10
2019-06-23T14:45:05.348Z,1.10
2019-06-23T14:47:33.955Z,1.00
2019-06-23T14:50:02.496Z,1.45
2019-06-23T14:52:31.200Z,1.32
2019-06-23T14:54:59.759Z,1.20
2019-06-23T14:57:28.354Z,1.20
2019-06-23T14:59:56.927Z,1.02
2019-06-23T15:02:25.538Z,1.10
2019-06-23T15:04:54.096Z,1.02
2019-06-23T15:07:22.626Z,1.12
2019-06-23T15:09:51.171Z,1.00
2019-06-23T15:12:19.726Z,1.20
2019-06-23T15:14:48.317Z,1.30
2019-06-23T15:17:17.281Z,1.00
2019-06-23T15:19:45.844Z,1.00
2019-06-23T15:22:14.383Z,1.02
2019-06-23T15:24:42.968Z,1.00
2019-06-23T15:27:11.494Z,1.10
2019-06-23T15:29:40.027Z,1.15
2019-06-23T15:32:09.427Z,0.90
2019-06-23T15:34:37.969Z,1.15
2019-06-23T15:37:06.530Z,1.20
2019-06-23T15:39:34.996Z,1.25
2019-06-23T15:42:03.577Z,1.10
2019-06-23T15:44:32.176Z,1.20
2019-06-23T15:47:01.041Z,1.15
2019-06-23T15:49:30.139Z,1.32
2019-06-23T15:51:58.680Z,1.90
2019-06-23T15:54:27.247Z,1.57
2019-06-23T15:56:55.865Z,1.22
2019-06-23T15:59:24.478Z,1.50
2019-06-23T16:01:53.063Z,1.10
2019-06-23T16:04:21.645Z,1.37
2019-06-23T16:06:50.138Z,1.25
2019-06-23T16:09:18.718Z,1.35
2019-06-23T16:11:47.312Z,0.82
2019-06-23T16:14:16.070Z,1.07
2019-06-23T16:16:44.886Z,1.50
2019-06-23T16:19:13.605Z,1.35
2019-06-23T16:21:42.376Z,1.45
2019-06-23T16:24:11.507Z,1.70
2019-06-23T16:26:40.234Z,1.32
2019-06-23T16:29:08.847Z,0.93
2019-06-23T16:31:37.382Z,1.12
2019-06-23T16:34:05.876Z,1.00
2019-06-23T16:36:34.500Z,1.40
2019-06-23T16:39:03.631Z,1.15
2019-06-23T16:41:32.171Z,1.17
2019-06-23T16:44:00.740Z,1.10
2019-06-23T16:46:29.270Z,0.93
2019-06-23T16:48:57.837Z,1.10
2019-06-23T16:51:26.378Z,0.88
2019-06-23T16:53:54.907Z,1.20
2019-06-23T16:56:23.710Z,1.22
2019-06-23T16:58:52.196Z,1.07
2019-06-23T17:01:20.737Z,1.00
2019-06-23T17:03:49.358Z,1.20
2019-06-23T17:06:17.907Z,1.17
2019-06-23T17:08:46.441Z,1.50
2019-06-23T17:11:15.571Z,1.20
2019-06-23T17:13:44.113Z,1.10
2019-06-23T17:16:12.677Z,1.65
2019-06-23T17:18:41.217Z,1.17
2019-06-23T17:21:10.010Z,1.32
2019-06-23T17:23:38.631Z,1.25
2019-06-23T17:26:07.248Z,1.40
2019-06-23T17:28:56.459Z,1.40
2019-06-23T17:31:25.178Z,1.20
2019-06-23T17:33:54.243Z,1.30
2019-06-23T17:36:22.782Z,1.30
2019-06-23T17:38:51.338Z,1.50
2019-06-23T17:41:20.042Z,1.22
2019-06-23T17:43:48.523Z,1.80
2019-06-23T17:46:17.089Z,1.30
2019-06-23T17:49:04.987Z,1.50
2019-06-23T17:51:33.696Z,1.32
2019-06-23T17:54:02.341Z,1.17
2019-06-23T17:56:31.020Z,1.55
2019-06-23T17:58:59.958Z,1.30
2019-06-23T18:01:28.608Z,1.67
2019-06-23T18:03:57.154Z,1.27
2019-06-23T18:06:25.769Z,1.32
2019-06-23T18:08:54.326Z,1.10
2019-06-23T18:11:22.943Z,1.20
2019-06-23T18:13:51.498Z,1.30
2019-06-23T18:16:20.107Z,1.50
2019-06-23T18:18:48.643Z,1.27
2019-06-23T18:21:36.634Z,1.87
2019-06-23T18:24:05.834Z,2.35
2019-06-23T18:26:34.371Z,1.25
2019-06-23T18:29:02.953Z,1.57
2019-06-23T18:31:31.550Z,1.35
2019-06-23T18:34:00.122Z,1.30
2019-06-23T18:36:28.658Z,1.42
2019-06-23T18:38:57.186Z,1.72
2019-06-23T18:41:25.751Z,1.45
2019-06-23T18:43:54.293Z,1.90
2019-06-23T18:46:22.860Z,2.58
2019-06-23T18:48:51.497Z,1.70
2019-06-23T18:51:20.040Z,1.62
2019-06-23T18:53:48.589Z,1.42
2019-06-23T18:56:17.190Z,1.60
2019-06-23T18:58:45.929Z,1.20
2019-06-23T19:01:14.493Z,1.42
2019-06-23T19:03:43.030Z,1.65
2019-06-23T19:06:11.599Z,1.60
2019-06-23T19:08:40.130Z,1.60
2019-06-23T19:11:08.678Z,1.40
2019-06-23T19:13:52.321Z,1.67
2019-06-23T19:16:07.693Z,1.80
2019-06-23T19:18:36.307Z,2.20
2019-06-23T19:21:05.007Z,2.85
2019-06-23T19:23:33.479Z,2.62
2019-06-23T19:26:02.139Z,2.67
2019-06-23T19:28:30.760Z,2.45
2019-06-23T19:30:59.296Z,1.85
2019-06-23T19:33:27.877Z,1.87
2019-06-23T19:35:56.435Z,2.00
2019-06-23T19:38:25.101Z,1.95
2019-06-23T19:40:57.332Z,1.50
2019-06-23T19:43:48.752Z,1.98
2019-06-23T19:46:18.073Z,1.62
2019-06-23T19:48:46.585Z,1.60
2019-06-23T19:51:16.174Z,1.85
2019-06-23T19:53:51.762Z,2.08
2019-06-23T19:56:16.335Z,1.90
2019-06-23T19:58:45.771Z,1.40
2019-06-23T20:01:16.661Z,2.10
2019-06-23T20:04:07.182Z,2.10
2019-06-23T20:06:37.126Z,2.17
2019-06-23T20:09:07.755Z,2.27
2019-06-23T20:11:38.613Z,1.75
2019-06-23T20:14:07.321Z,2.08
2019-06-23T20:16:47.748Z,2.00
2019-06-23T20:19:16.307Z,1.82
2019-06-23T20:21:44.927Z,1.70
2019-06-23T20:24:13.475Z,1.70
2019-06-23T20:26:42.106Z,1.72
2019-06-23T20:29:10.647Z,1.62
2019-06-23T20:31:39.187Z,2.02
2019-06-23T20:34:07.834Z,1.70
2019-06-23T20:36:36.390Z,1.40
2019-06-23T20:39:07.307Z,1.70
2019-06-23T20:41:35.850Z,1.90
2019-06-23T20:44:04.863Z,1.92
2019-06-23T20:46:33.423Z,1.65
2019-06-23T20:49:02.214Z,1.80
2019-06-23T20:51:31.025Z,1.75
2019-06-23T20:53:59.734Z,1.50
2019-06-23T20:56:28.333Z,1.70
2019-06-23T20:58:57.012Z,1.80
2019-06-23T21:01:25.556Z,1.85
2019-06-23T21:03:54.272Z,1.90
2019-06-23T21:06:24.051Z,1.70
2019-06-23T21:08:52.747Z,1.40
2019-06-23T21:11:21.607Z,1.62
2019-06-23T21:13:50.222Z,1.62
2019-06-23T21:16:18.766Z,1.60
2019-06-23T21:18:47.258Z,2.08
2019-06-23T21:21:15.791Z,1.55
2019-06-23T21:23:44.396Z,1.90
2019-06-23T21:26:13.758Z,1.87
2019-06-23T21:28:42.512Z,1.80
2019-06-23T21:31:12.510Z,1.95
2019-06-23T21:33:41.064Z,1.92
2019-06-23T21:36:09.613Z,1.92
2019-06-23T21:38:38.175Z,1.72
2019-06-23T21:41:06.710Z,2.00
2019-06-23T21:43:35.535Z,1.90
2019-06-23T21:46:04.077Z,1.90
2019-06-23T21:48:32.910Z,2.12
2019-06-23T21:51:01.465Z,1.92
2019-06-23T21:53:29.974Z,1.80
2019-06-23T21:55:58.538Z,1.72
2019-06-23T21:58:27.260Z,1.95
2019-06-23T22:00:59.127Z,1.55
2019-06-23T22:03:27.832Z,1.60
2019-06-23T22:05:56.778Z,1.62
2019-06-23T22:08:25.343Z,1.70
2019-06-23T22:10:53.815Z,1.42
2019-06-23T22:13:22.412Z,1.98
2019-06-23T22:15:50.993Z,1.72
2019-06-23T22:18:19.638Z,1.82
2019-06-23T22:20:48.253Z,1.72
2019-06-23T22:23:16.805Z,1.45
2019-06-23T22:25:45.385Z,1.80
2019-06-23T22:28:13.901Z,1.40
2019-06-23T22:30:42.576Z,1.65
2019-06-23T22:33:11.066Z,1.60
2019-06-23T22:35:39.626Z,1.50
2019-06-23T22:38:08.163Z,2.08
2019-06-23T22:40:36.703Z,1.60
2019-06-23T22:43:05.340Z,1.80
2019-06-23T22:45:46.571Z,1.60
2019-06-23T22:48:05.142Z,1.82
2019-06-23T22:50:33.708Z,1.75
2019-06-23T22:53:03.907Z,1.70
2019-06-23T22:55:32.641Z,1.90
2019-06-23T22:58:01.209Z,1.55
2019-06-23T23:00:29.788Z,1.85
2019-06-23T23:02:59.223Z,1.60
2019-06-23T23:05:27.975Z,1.90
2019-06-23T23:07:56.503Z,1.72
2019-06-23T23:10:24.990Z,1.90
2019-06-23T23:12:53.450Z,1.70
2019-06-23T23:15:22.047Z,1.70
2019-06-23T23:17:50.634Z,1.55
2019-06-23T23:20:19.846Z,2.05
2019-06-23T23:22:48.414Z,1.80
2019-06-23T23:25:17.082Z,1.65
2019-06-23T23:27:45.578Z,1.70
2019-06-23T23:30:14.657Z,1.70
2019-06-23T23:32:43.526Z,1.40
2019-06-23T23:35:12.245Z,1.60
2019-06-23T23:37:40.775Z,1.90
2019-06-23T23:40:11.016Z,1.60
2019-06-23T23:42:39.889Z,1.70
2019-06-23T23:45:08.815Z,1.80
2019-06-23T23:47:56.780Z,1.70
2019-06-23T23:52:53.066Z,1.80
2019-06-23T23:55:21.637Z,1.75
2019-06-23T23:57:50.239Z,1.90
